Map

Track Data

SID SEASON NUMBER BASIN SUBBASIN NAME ISO_TIME NATURE LAT LON WMO_WIND WMO_PRES WMO_AGENCY TRACK_TYPE DIST2LAND LANDFALL IFLAG USA_AGENCY USA_ATCF_ID USA_LAT USA_LON USA_RECORD USA_STATUS USA_WIND USA_PRES USA_SSHS USA_R34_NE USA_R34_SE USA_R34_SW USA_R34_NW USA_R50_NE USA_R50_SE USA_R50_SW USA_R50_NW USA_R64_NE USA_R64_SE USA_R64_SW USA_R64_NW USA_POCI USA_ROCI USA_RMW USA_EYE TOKYO_LAT TOKYO_LON TOKYO_GRADE TOKYO_WIND TOKYO_PRES TOKYO_R50_DIR TOKYO_R50_LONG TOKYO_R50_SHORT TOKYO_R30_DIR TOKYO_R30_LONG TOKYO_R30_SHORT TOKYO_LAND CMA_LAT CMA_LON CMA_CAT CMA_WIND CMA_PRES HKO_LAT HKO_LON HKO_CAT HKO_WIND HKO_PRES NEWDELHI_LAT NEWDELHI_LON NEWDELHI_GRADE NEWDELHI_WIND NEWDELHI_PRES NEWDELHI_CI NEWDELHI_DP NEWDELHI_POCI REUNION_LAT REUNION_LON REUNION_TYPE REUNION_WIND REUNION_PRES REUNION_TNUM REUNION_CI REUNION_RMW REUNION_R34_NE REUNION_R34_SE REUNION_R34_SW REUNION_R34_NW REUNION_R50_NE REUNION_R50_SE REUNION_R50_SW REUNION_R50_NW REUNION_R64_NE REUNION_R64_SE REUNION_R64_SW REUNION_R64_NW BOM_LAT BOM_LON BOM_TYPE BOM_WIND BOM_PRES BOM_TNUM BOM_CI BOM_RMW BOM_R34_NE BOM_R34_SE BOM_R34_SW BOM_R34_NW BOM_R50_NE BOM_R50_SE BOM_R50_SW BOM_R50_NW BOM_R64_NE BOM_R64_SE BOM_R64_SW BOM_R64_NW BOM_ROCI BOM_POCI BOM_EYE BOM_POS_METHOD BOM_PRES_METHOD NADI_LAT NADI_LON NADI_CAT NADI_WIND NADI_PRES WELLINGTON_LAT WELLINGTON_LON WELLINGTON_WIND WELLINGTON_PRES DS824_LAT DS824_LON DS824_STAGE DS824_WIND DS824_PRES TD9636_LAT TD9636_LON TD9636_STAGE TD9636_WIND TD9636_PRES TD9635_LAT TD9635_LON TD9635_WIND TD9635_PRES TD9635_ROCI NEUMANN_LAT NEUMANN_LON NEUMANN_CLASS NEUMANN_WIND NEUMANN_PRES MLC_LAT MLC_LON MLC_CLASS MLC_WIND MLC_PRES USA_GUST BOM_GUST BOM_GUST_PER REUNION_GUST REUNION_GUST_PER USA_SEAHGT USA_SEARAD_NE USA_SEARAD_SE USA_SEARAD_SW USA_SEARAD_NW STORM_SPEED STORM_DIR
1983209N12333 1983 39 NA NA NOT_NAMED 1983-07-27 12:00:00 TS 12.0000 -27.0000 25 hurdat_atl main 1071 1071 O_____________ hurdat_atl AL021983 12.0000 -27.0000 TD 25 -1 15 270
1983209N12333 1983 39 NA NA NOT_NAMED 1983-07-27 15:00:00 TS 12.0006 -27.7825 main 1155 1155 P_____________ AL021983 12.0006 -27.7825 TD 25 -1 15 270
1983209N12333 1983 39 NA NA NOT_NAMED 1983-07-27 18:00:00 TS 12.0000 -28.5000 25 hurdat_atl main 1228 1228 O_____________ hurdat_atl AL021983 12.0000 -28.5000 TD 25 -1 13 270
1983209N12333 1983 39 NA NA NOT_NAMED 1983-07-27 21:00:00 TS 11.9997 -29.1150 main 1291 1291 P_____________ AL021983 11.9997 -29.1150 TD 25 -1 12 270
1983209N12333 1983 39 NA NA NOT_NAMED 1983-07-28 00:00:00 TS 12.0000 -29.7000 25 hurdat_atl main 1354 1354 O_____________ hurdat_atl AL021983 12.0000 -29.7000 TD 25 -1 12 270
1983209N12333 1983 39 NA NA NOT_NAMED 1983-07-28 03:00:00 TS 11.9925 -30.3575 main 1428 1428 P_____________ AL021983 11.9925 -30.3575 TD 25 -1 13 270
1983209N12333 1983 39 NA NA NOT_NAMED 1983-07-28 06:00:00 TS 12.0000 -31.0000 25 hurdat_atl main 1492 1492 O_____________ hurdat_atl AL021983 12.0000 -31.0000 TD 25 -1 11 271
1983209N12333 1983 39 NA NA NOT_NAMED 1983-07-28 09:00:00 TS 12.0195 -31.5202 main 1545 1545 P_____________ AL021983 12.0195 -31.5202 TD 27 -1 11 275
1983209N12333 1983 39 NA NA NOT_NAMED 1983-07-28 12:00:00 TS 12.1000 -32.1000 30 hurdat_atl main 1606 1606 O_____________ hurdat_atl AL021983 12.1000 -32.1000 TD 30 -1 14 281
1983209N12333 1983 39 NA NA NOT_NAMED 1983-07-28 15:00:00 TS 12.2778 -32.9273 main 1687 1687 P_____________ AL021983 12.2778 -32.9273 TD 30 -1 17 284
1983209N12333 1983 39 NA NA NOT_NAMED 1983-07-28 18:00:00 TS 12.5000 -33.8000 30 hurdat_atl main 1779 1779 O_____________ hurdat_atl AL021983 12.5000 -33.8000 TD 30 -1 16 286
1983209N12333 1983 39 NA NA NOT_NAMED 1983-07-28 21:00:00 TS 12.7144 -34.5001 main 1843 1837 P_____________ AL021983 12.7144 -34.5001 TD 30 -1 14 286
1983209N12333 1983 39 NA NA NOT_NAMED 1983-07-29 00:00:00 TS 12.9000 -35.2000 30 hurdat_atl main 1841 1830 O_____________ hurdat_atl AL021983 12.9000 -35.2000 TD 30 -1 15 280
1983209N12333 1983 39 NA NA NOT_NAMED 1983-07-29 03:00:00 TS 12.9926 -36.0429 main 1830 1816 P_____________ AL021983 12.9926 -36.0429 TD 30 -1 17 277
1983209N12333 1983 39 NA NA NOT_NAMED 1983-07-29 06:00:00 TS 13.1000 -36.9000 30 hurdat_atl main 1821 1811 O_____________ hurdat_atl AL021983 13.1000 -36.9000 TD 30 -1 16 282
1983209N12333 1983 39 NA NA NOT_NAMED 1983-07-29 09:00:00 TS 13.3421 -37.6648 main 1802 1758 P_____________ AL021983 13.3421 -37.6648 TD 30 -1 15 289
1983209N12333 1983 39 NA NA NOT_NAMED 1983-07-29 12:00:00 TS 13.6000 -38.4000 30 hurdat_atl main 1758 1710 O_____________ hurdat_atl AL021983 13.6000 -38.4000 TD 30 -1 15 286
1983209N12333 1983 39 NA NA NOT_NAMED 1983-07-29 15:00:00 TS 13.7724 -39.1651 main 1701 1649 P_____________ AL021983 13.7724 -39.1651 TD 30 -1 15 282
1983209N12333 1983 39 NA NA NOT_NAMED 1983-07-29 18:00:00 TS 13.9000 -39.9000 30 hurdat_atl main 1649 1607 O_____________ hurdat_atl AL021983 13.9000 -39.9000 TD 30 -1 14 280
1983209N12333 1983 39 NA NA NOT_NAMED 1983-07-29 21:00:00 TS 13.9996 -40.5577 main 1599 1559 P_____________ AL021983 13.9996 -40.5577 TD 30 -1 13 279
1983209N12333 1983 39 NA NA NOT_NAMED 1983-07-30 00:00:00 TS 14.1000 -41.2000 30 hurdat_atl main 1559 1514 O_____________ hurdat_atl AL021983 14.1000 -41.2000 TD 30 -1 13 281
1983209N12333 1983 39 NA NA NOT_NAMED 1983-07-30 03:00:00 TS 14.2424 -41.8925 main 1514 1479 P_____________ AL021983 14.2424 -41.8925 TD 30 -1 14 282
1983209N12333 1983 39 NA NA NOT_NAMED 1983-07-30 06:00:00 TS 14.4000 -42.6000 30 hurdat_atl main 1479 1440 O_____________ hurdat_atl AL021983 14.4000 -42.6000 TD 30 -1 14 283
1983209N12333 1983 39 NA NA NOT_NAMED 1983-07-30 09:00:00 TS 14.5497 -43.2926 main 1440 1413 P_____________ AL021983 14.5497 -43.2926 TD 30 -1 14 282
1983209N12333 1983 39 NA NA NOT_NAMED 1983-07-30 12:00:00 TS 14.7000 -44.0000 30 hurdat_atl main 1413 1379 O_____________ hurdat_atl AL021983 14.7000 -44.0000 TD 30 -1 14 282
1983209N12333 1983 39 NA NA NOT_NAMED 1983-07-30 15:00:00 TS 14.8498 -44.7351 main 1379 1344 P_____________ AL021983 14.8498 -44.7351 TD 30 -1 15 282
1983209N12333 1983 39 NA NA NOT_NAMED 1983-07-30 18:00:00 TS 15.0000 -45.5000 30 hurdat_atl main 1344 1311 O_____________ hurdat_atl AL021983 15.0000 -45.5000 TD 30 -1 15 281
1983209N12333 1983 39 NA NA NOT_NAMED 1983-07-30 21:00:00 TS 15.1422 -46.2852 main 1305 1281 P_____________ AL021983 15.1422 -46.2852 TD 30 -1 16 281
1983209N12333 1983 39 NA NA NOT_NAMED 1983-07-31 00:00:00 TS 15.3000 -47.1000 30 hurdat_atl main 1281 1261 O_____________ hurdat_atl AL021983 15.3000 -47.1000 TD 30 -1 17 282
1983209N12333 1983 39 NA NA NOT_NAMED 1983-07-31 03:00:00 TS 15.5000 -47.9649 main 1257 1241 P_____________ AL021983 15.5000 -47.9649 TD 30 -1 17 284
1983209N12333 1983 39 NA NA NOT_NAMED 1983-07-31 06:00:00 TS 15.7000 -48.8000 30 hurdat_atl main 1244 1226 O_____________ hurdat_atl AL021983 15.7000 -48.8000 TD 30 -1 15 284
1983209N12333 1983 39 NA NA NOT_NAMED 1983-07-31 09:00:00 TS 15.8642 -49.4927 main 1231 1212 P_____________ AL021983 15.8642 -49.4927 TD 30 -1 14 283
1983209N12333 1983 39 NA NA NOT_NAMED 1983-07-31 12:00:00 TS 16.0000 -50.2000 30 hurdat_atl main 1212 1193 O_____________ hurdat_atl AL021983 16.0000 -50.2000 TD 30 -1 15 278
1983209N12333 1983 39 NA NA NOT_NAMED 1983-07-31 15:00:00 TS 16.0850 -51.0705 main 1191 1160 P_____________ AL021983 16.0850 -51.0705 TD 30 -1 17 277
1983209N12333 1983 39 NA NA NOT_NAMED 1983-07-31 18:00:00 TS 16.2000 -52.0000 30 hurdat_atl main 1151 1083 O_____________ hurdat_atl AL021983 16.2000 -52.0000 TD 30 -1 18 281
1983209N12333 1983 39 NA NA NOT_NAMED 1983-07-31 21:00:00 TS 16.4423 -52.9147 main 1083 1027 P_____________ AL021983 16.4423 -52.9147 TD 27 -1 18 286
1983209N12333 1983 39 NA NA NOT_NAMED 1983-08-01 00:00:00 TS 16.7000 -53.8000 25 hurdat_atl main 1027 979 O_____________ hurdat_atl AL021983 16.7000 -53.8000 TD 25 -1 17 285
1983209N12333 1983 39 NA NA NOT_NAMED 1983-08-01 03:00:00 TS 16.8795 -54.6152 main 979 928 P_____________ AL021983 16.8795 -54.6152 TD 25 -1 16 281
1983209N12333 1983 39 NA NA NOT_NAMED 1983-08-01 06:00:00 TS 17.0000 -55.4000 25 hurdat_atl main 928 881 O_____________ hurdat_atl AL021983 17.0000 -55.4000 TD 25 -1 15 276
1983209N12333 1983 39 NA NA NOT_NAMED 1983-08-01 09:00:00 TS 17.0271 -56.1933 main 875 836 P_____________ AL021983 17.0271 -56.1933 TD 25 -1 15 274
1983209N12333 1983 39 NA NA NOT_NAMED 1983-08-01 12:00:00 TS 17.1000 -57.0000 25 hurdat_atl main 836 815 O_____________ hurdat_atl AL021983 17.1000 -57.0000 TD 25 -1 16 283
1983209N12333 1983 39 NA NA NOT_NAMED 1983-08-01 15:00:00 TS 17.3849 -57.8569 main 820 732 P_____________ AL021983 17.3849 -57.8569 TD 25 -1 17 290
1983209N12333 1983 39 NA NA NOT_NAMED 1983-08-01 18:00:00 TS 17.7000 -58.7000 25 hurdat_atl main 732 656 O_____________ hurdat_atl AL021983 17.7000 -58.7000 TD 25 -1 16 288
1983209N12333 1983 39 NA NA NOT_NAMED 1983-08-01 21:00:00 TS 17.8719 -59.4580 main 645 571 P_____________ AL021983 17.8719 -59.4580 TD 25 -1 15 282
1983209N12333 1983 39 NA NA NOT_NAMED 1983-08-02 00:00:00 TS 18.0000 -60.2000 25 hurdat_atl main 571 486 O_____________ hurdat_atl AL021983 18.0000 -60.2000 TD 25 -1 15 280
1983209N12333 1983 39 NA NA NOT_NAMED 1983-08-02 03:00:00 TS 18.1350 -61.0152 main 486 401 P_____________ AL021983 18.1350 -61.0152 TD 22 -1 16 281
1983209N12333 1983 39 NA CS NOT_NAMED 1983-08-02 06:00:00 TS 18.3000 -61.8000 20 hurdat_atl main 401 337 O_____________ hurdat_atl AL021983 18.3000 -61.8000 TD 20 -1 14 286
1983209N12333 1983 39 NA CS NOT_NAMED 1983-08-02 09:00:00 TS 18.5302 -62.4820 main 327 267 P_____________ AL021983 18.5302 -62.4820 TD 20 -1 13 292
1983209N12333 1983 39 NA CS NOT_NAMED 1983-08-02 12:00:00 TS 18.8000 -63.1000 20 hurdat_atl main 267 O_____________ hurdat_atl AL021983 18.8000 -63.1000 TD 20 -1 13 295

About IBTrACS Database

This database is a web-friendly format of International Best Track Archive for Climate Stewardship (IBTrACS), a global best track data archive curated by NOAA dating back to 1842.

Updated: 2021-12-03